Time;durP1;ratioP1;P1;durP2;ratioP2;P2;SDS_P1;SDS_P2;PMS_P1;PMS_P2;Temp;Humidity;BMP_temperature;BMP_pressure;BME280_temperature;BME280_humidity;BME280_pressure;Samples;Min_cycle;Max_cycle;Signal;HPM_P1;HPM_P2
2023/04/23 00:02:12;;;;;;;;;;;;;;;8.35;98.83;100712.03;5057995;28;1937;-77
2023/04/23 00:04:37;;;;;;;;;;;;;;;8.36;98.84;100715.47;5065262;28;1133;-77
2023/04/23 00:07:03;;;;;;;;;;;;;;;8.32;98.35;100707.09;5060569;28;1457;-79
2023/04/23 00:09:31;;;;;;;;;;;;;;;8.28;98.35;100704.84;5059925;28;1202;-77
2023/04/23 00:11:57;;;;;;;;;;;;;;;8.22;98.44;100706.94;5062815;28;1218;-78
2023/04/23 00:14:23;;;;;;;;;;;;;;;8.18;98.40;100700.34;5059668;28;1388;-79
2023/04/23 00:16:48;;;;;;;;;;;;;;;8.17;98.57;100697.88;5061984;28;1212;-77
2023/04/23 00:19:13;;;;;;;;;;;;;;;8.13;98.44;100686.94;5059362;28;1969;-78
2023/04/23 00:21:39;;;;;;;;;;;;;;;8.09;98.27;100688.13;5065295;28;1488;-77
2023/04/23 00:24:04;;;;;;;;;;;;;;;8.07;98.05;100686.56;5057292;28;1442;-78
2023/04/23 00:26:29;;;;;;;;;;;;;;;8.01;98.17;100687.03;5072022;28;1236;-78
2023/04/23 00:28:55;;;;;;;;;;;;;;;7.94;98.53;100687.47;5067669;28;1230;-79
2023/04/23 00:31:21;;;;;;;;;;;;;;;7.92;98.07;100693.69;5059793;28;1084;-78
2023/04/23 00:33:46;;;;;;;;;;;;;;;7.90;98.00;100686.03;5074884;28;1298;-77
2023/04/23 00:36:11;;;;;;;;;;;;;;;7.88;98.51;100693.09;5064953;28;1273;-77
2023/04/23 00:38:37;;;;;;;;;;;;;;;7.83;98.35;100679.69;5059985;28;1973;-77
2023/04/23 00:41:02;;;;;;;;;;;;;;;7.81;98.71;100676.41;5062502;28;1139;-77
2023/04/23 00:43:27;;;;;;;;;;;;;;;7.82;98.72;100678.03;5066574;28;1206;-77
2023/04/23 00:45:52;;;;;;;;;;;;;;;7.80;98.43;100669.59;5065880;28;1274;-77
2023/04/23 00:48:18;;;;;;;;;;;;;;;7.79;98.98;100673.09;5065497;28;1195;-77
2023/04/23 00:50:43;;;;;;;;;;;;;;;7.78;98.69;100666.28;5062844;28;1484;-77
2023/04/23 00:53:08;;;;;;;;;;;;;;;7.78;98.80;100658.53;5058163;28;1306;-77
2023/04/23 00:55:34;;;;;;;;;;;;;;;7.78;98.44;100660.28;5058635;28;1163;-78
2023/04/23 00:57:59;;;;;;;;;;;;;;;7.77;98.60;100651.72;5063396;28;2120;-77
2023/04/23 01:00:25;;;;;;;;;;;;;;;7.76;98.29;100652.66;5066080;28;1882;-77
2023/04/23 01:02:51;;;;;;;;;;;;;;;7.73;98.90;100647.72;5062921;28;1148;-78
2023/04/23 01:05:18;;;;;;;;;;;;;;;7.72;98.76;100646.91;5061229;28;1139;-77
2023/04/23 01:07:44;;;;;;;;;;;;;;;7.71;98.96;100649.59;5062927;28;1100;-77
2023/04/23 01:10:10;;;;;;;;;;;;;;;7.69;99.15;100648.88;5065175;28;1140;-77
2023/04/23 01:12:35;;;;;;;;;;;;;;;7.67;98.58;100643.81;5069116;28;1470;-77
2023/04/23 01:15:00;;;;;;;;;;;;;;;7.65;98.91;100634.56;5067117;28;1182;-77
2023/04/23 01:17:26;;;;;;;;;;;;;;;7.64;98.75;100643.22;5057630;28;1563;-76
2023/04/23 01:19:51;;;;;;;;;;;;;;;7.61;98.73;100646.03;5081479;28;1898;-77
2023/04/23 01:22:17;;;;;;;;;;;;;;;7.58;98.69;100638.53;5067765;28;1433;-76
2023/04/23 01:24:42;;;;;;;;;;;;;;;7.54;98.49;100627.56;5068958;28;1183;-77
2023/04/23 01:27:08;;;;;;;;;;;;;;;7.45;98.49;100634.25;5063263;28;1463;-77
2023/04/23 01:29:34;;;;;;;;;;;;;;;7.42;98.51;100639.59;5069084;28;1136;-76
2023/04/23 01:31:59;;;;;;;;;;;;;;;7.41;99.09;100624.25;5063210;28;1179;-77
2023/04/23 01:34:25;;;;;;;;;;;;;;;7.40;98.66;100623.41;5065248;28;1236;-79
2023/04/23 01:36:50;;;;;;;;;;;;;;;7.40;99.35;100617.44;5062947;28;1346;-77
2023/04/23 01:39:16;;;;;;;;;;;;;;;7.37;99.35;100618.47;5061917;28;2451;-77
2023/04/23 01:41:42;;;;;;;;;;;;;;;7.35;98.65;100620.34;5065802;28;1429;-77
2023/04/23 01:44:07;;;;;;;;;;;;;;;7.33;99.58;100614.44;5061825;28;1215;-77
2023/04/23 01:46:32;;;;;;;;;;;;;;;7.31;99.38;100613.75;5069855;28;1416;-76
2023/04/23 01:48:57;;;;;;;;;;;;;;;7.28;99.03;100610.53;5079703;28;1274;-79
2023/04/23 01:51:24;;;;;;;;;;;;;;;7.27;99.46;100604.56;5064726;28;1147;-79
2023/04/23 01:53:49;;;;;;;;;;;;;;;7.25;99.22;100611.59;5065405;28;1432;-77
2023/04/23 01:56:15;;;;;;;;;;;;;;;7.23;99.30;100617.81;5064319;28;1283;-78
2023/04/23 01:58:40;;;;;;;;;;;;;;;7.20;98.98;100618.84;5065836;28;1885;-77
2023/04/23 02:01:05;;;;;;;;;;;;;;;7.18;99.74;100610.41;5057986;28;1163;-77
2023/04/23 02:03:32;;;;;;;;;;;;;;;7.15;99.85;100620.91;5059878;28;1303;-77
2023/04/23 02:05:58;;;;;;;;;;;;;;;7.16;99.31;100614.81;5068462;28;1202;-77
2023/04/23 02:08:23;;;;;;;;;;;;;;;7.18;99.44;100616.38;5061792;28;1187;-76
2023/04/23 02:10:48;;;;;;;;;;;;;;;7.20;99.43;100618.84;5067458;28;1295;-77
2023/04/23 02:13:14;;;;;;;;;;;;;;;7.20;99.67;100616.25;5064950;28;2547;-77
2023/04/23 02:15:39;;;;;;;;;;;;;;;7.21;99.89;100615.31;5053845;28;2360;-76
2023/04/23 02:18:05;;;;;;;;;;;;;;;7.23;99.38;100608.31;5061918;28;1231;-77
2023/04/23 02:20:31;;;;;;;;;;;;;;;7.23;99.81;100592.03;5073261;28;1985;-79
2023/04/23 02:22:56;;;;;;;;;;;;;;;7.20;99.61;100593.03;5067389;28;1470;-77
2023/04/23 02:25:21;;;;;;;;;;;;;;;7.17;99.33;100599.25;5063131;28;1404;-76
2023/04/23 02:27:47;;;;;;;;;;;;;;;7.15;99.81;100600.28;5065984;28;1629;-77
2023/04/23 02:30:12;;;;;;;;;;;;;;;7.12;100.00;100600.53;5072737;28;1416;-77
2023/04/23 02:32:38;;;;;;;;;;;;;;;7.12;100.00;100597.94;5060086;28;1183;-76
2023/04/23 02:35:05;;;;;;;;;;;;;;;7.15;100.00;100595.13;5056559;28;1336;-77
2023/04/23 02:37:31;;;;;;;;;;;;;;;7.17;100.00;100590.69;5063561;28;1496;-77
2023/04/23 02:39:56;;;;;;;;;;;;;;;7.16;99.88;100583.88;5058495;28;1948;-77
2023/04/23 02:42:21;;;;;;;;;;;;;;;7.12;100.00;100590.19;5064435;28;1354;-77
2023/04/23 02:44:47;;;;;;;;;;;;;;;7.11;99.97;100589.38;5061267;28;1079;-76
2023/04/23 02:47:12;;;;;;;;;;;;;;;7.09;100.00;100590.41;5066284;28;1306;-77
2023/04/23 02:49:37;;;;;;;;;;;;;;;7.10;100.00;100582.56;5066527;28;1201;-77
2023/04/23 02:52:02;;;;;;;;;;;;;;;7.12;100.00;100590.19;5066943;28;1203;-77
2023/04/23 02:54:28;;;;;;;;;;;;;;;7.11;100.00;100583.38;5062037;28;1350;-77
2023/04/23 02:56:53;;;;;;;;;;;;;;;7.08;99.95;100588.75;5063542;28;1255;-78
2023/04/23 02:59:18;;;;;;;;;;;;;;;7.08;100.00;100588.75;5059224;28;1906;-77
2023/04/23 03:01:43;;;;;;;;;;;;;;;7.09;100.00;100591.22;5066159;28;1254;-77
2023/04/23 03:04:08;;;;;;;;;;;;;;;7.09;100.00;100590.41;5058975;28;1108;-77
2023/04/23 03:06:34;;;;;;;;;;;;;;;7.09;100.00;100588.66;5065705;28;1313;-76
2023/04/23 03:08:59;;;;;;;;;;;;;;;7.11;100.00;100604.00;5056487;28;1235;-76
2023/04/23 03:11:25;;;;;;;;;;;;;;;7.11;100.00;100593.69;5065887;28;1167;-77
2023/04/23 03:13:50;;;;;;;;;;;;;;;7.11;100.00;100594.53;5064501;28;2375;-77
2023/04/23 03:16:15;;;;;;;;;;;;;;;7.12;100.00;100595.38;5064505;28;1271;-78
2023/04/23 03:18:41;;;;;;;;;;;;;;;7.12;100.00;100593.59;5060746;28;1957;-77
2023/04/23 03:21:06;;;;;;;;;;;;;;;7.16;100.00;100586.44;5063050;28;1224;-77
2023/04/23 03:23:31;;;;;;;;;;;;;;;7.17;100.00;100585.53;5064938;28;1333;-77
2023/04/23 03:25:56;;;;;;;;;;;;;;;7.20;100.00;100582.72;5064329;28;1180;-77
2023/04/23 03:28:22;;;;;;;;;;;;;;;7.22;100.00;100575.69;5061273;28;2411;-77
2023/04/23 03:30:47;;;;;;;;;;;;;;;7.25;100.00;100575.50;5070324;28;1531;-77
2023/04/23 03:33:12;;;;;;;;;;;;;;;7.26;100.00;100571.97;5061153;28;1139;-78
2023/04/23 03:35:37;;;;;;;;;;;;;;;7.28;100.00;100570.09;5058616;28;1107;-77
2023/04/23 03:38:02;;;;;;;;;;;;;;;7.29;100.00;100565.78;5058830;28;1115;-78
2023/04/23 03:40:28;;;;;;;;;;;;;;;7.31;100.00;100559.56;5065379;28;1955;-77
2023/04/23 03:42:53;;;;;;;;;;;;;;;7.30;100.00;100557.94;5058229;28;1588;-77
2023/04/23 03:45:18;;;;;;;;;;;;;;;7.32;100.00;100560.38;5065879;28;1159;-77
2023/04/23 03:47:43;;;;;;;;;;;;;;;7.34;100.00;100559.38;5057673;28;1308;-77
2023/04/23 03:50:11;;;;;;;;;;;;;;;7.37;100.00;100559.13;5058689;28;1235;-77
2023/04/23 03:52:36;;;;;;;;;;;;;;;7.39;100.00;100559.81;5058971;28;1366;-77
2023/04/23 03:55:02;;;;;;;;;;;;;;;7.41;100.00;100559.75;5068071;28;1178;-77
2023/04/23 03:57:27;;;;;;;;;;;;;;;7.43;100.00;100558.69;5070886;28;1483;-77
2023/04/23 03:59:52;;;;;;;;;;;;;;;7.44;100.00;100555.16;5061255;28;1981;-77
2023/04/23 04:02:18;;;;;;;;;;;;;;;7.46;100.00;100567.97;5063305;28;1223;-78
2023/04/23 04:04:44;;;;;;;;;;;;;;;7.44;100.00;100560.31;5061927;28;1263;-77
2023/04/23 04:07:10;;;;;;;;;;;;;;;7.45;100.00;100569.72;5056927;28;1175;-78
2023/04/23 04:09:36;;;;;;;;;;;;;;;7.45;100.00;100562.00;5066883;28;1021;-77
2023/04/23 04:12:02;;;;;;;;;;;;;;;7.47;100.00;100563.63;5065004;28;1213;-77
2023/04/23 04:14:28;;;;;;;;;;;;;;;7.49;100.00;100572.06;5066686;28;1156;-77
2023/04/23 04:16:53;;;;;;;;;;;;;;;7.50;100.00;100568.56;5059473;28;1376;-78
2023/04/23 04:19:19;;;;;;;;;;;;;;;7.51;100.00;100567.63;5060801;28;1969;-77
2023/04/23 04:21:44;;;;;;;;;;;;;;;7.52;100.00;100566.69;5059741;28;1281;-77
2023/04/23 04:24:10;;;;;;;;;;;;;;;7.54;100.00;100564.81;5065983;28;1043;-77
2023/04/23 04:26:36;;;;;;;;;;;;;;;7.55;100.00;100571.63;5064058;28;1268;-77
2023/04/23 04:29:01;;;;;;;;;;;;;;;7.54;100.00;100567.41;5062203;28;1406;-78
2023/04/23 04:31:27;;;;;;;;;;;;;;;7.54;100.00;100572.56;5063659;28;1346;-77
2023/04/23 04:33:52;;;;;;;;;;;;;;;7.54;100.00;100567.41;5058213;28;1092;-77
2023/04/23 04:36:18;;;;;;;;;;;;;;;7.56;100.00;100565.53;5060663;28;1147;-77
2023/04/23 04:38:43;;;;;;;;;;;;;;;7.56;100.00;100548.28;5072230;28;1985;-77
2023/04/23 04:41:08;;;;;;;;;;;;;;;7.58;100.00;100566.25;5060234;28;1182;-77
2023/04/23 04:43:33;;;;;;;;;;;;;;;7.61;100.00;100569.41;5065777;28;1295;-77
2023/04/23 04:45:59;;;;;;;;;;;;;;;7.64;100.00;100560.63;5058433;28;1191;-78
2023/04/23 04:48:24;;;;;;;;;;;;;;;7.68;100.00;100556.88;5060949;28;1158;-79
2023/04/23 04:50:49;;;;;;;;;;;;;;;7.69;100.00;100563.72;5060958;28;1174;-78
2023/04/23 04:53:15;;;;;;;;;;;;;;;7.73;100.00;100570.28;5064367;28;1116;-78
2023/04/23 04:55:40;;;;;;;;;;;;;;;7.75;100.00;100572.75;5062495;28;1275;-78
2023/04/23 04:58:06;;;;;;;;;;;;;;;7.77;100.00;100576.84;5061924;28;1025;-77
2023/04/23 05:00:31;;;;;;;;;;;;;;;7.79;100.00;100574.16;5063922;28;1965;-77
2023/04/23 05:02:56;;;;;;;;;;;;;;;7.82;100.00;100563.63;5061808;28;1178;-78
2023/04/23 05:05:23;;;;;;;;;;;;;;;7.82;100.00;100564.44;5062076;28;1416;-77
2023/04/23 05:07:48;;;;;;;;;;;;;;;7.85;100.00;100553.03;5063991;28;1429;-77
2023/04/23 05:10:14;;;;;;;;;;;;;;;7.86;100.00;100550.38;5059865;28;1540;-77
2023/04/23 05:12:40;;;;;;;;;;;;;;;7.87;100.00;100546.84;5064150;28;1527;-78
2023/04/23 05:15:06;;;;;;;;;;;;;;;7.88;100.00;100548.50;5064207;28;1090;-77
2023/04/23 05:17:31;;;;;;;;;;;;;;;7.91;100.00;100552.59;5056371;28;1503;-78
2023/04/23 05:19:56;;;;;;;;;;;;;;;7.91;100.00;100552.59;5059965;28;1959;-77
2023/04/23 05:22:22;;;;;;;;;;;;;;;7.92;100.00;100556.84;5062407;28;1179;-77
2023/04/23 05:24:47;;;;;;;;;;;;;;;7.93;100.00;100561.88;5063161;28;1313;-78
2023/04/23 05:27:12;;;;;;;;;;;;;;;7.95;100.00;100565.16;5058502;28;1506;-78
2023/04/23 05:29:37;;;;;;;;;;;;;;;7.98;100.00;100559.78;5065771;28;1377;-78
2023/04/23 05:32:03;;;;;;;;;;;;;;;8.00;100.00;100567.41;5062611;28;1496;-77
2023/04/23 05:34:28;;;;;;;;;;;;;;;8.03;100.00;100566.34;5062615;28;1262;-77
2023/04/23 05:36:53;;;;;;;;;;;;;;;8.04;100.00;100563.66;5055245;28;1560;-79
2023/04/23 05:39:18;;;;;;;;;;;;;;;8.09;100.00;100568.50;5064323;28;1897;-77
2023/04/23 05:41:43;;;;;;;;;;;;;;;8.12;100.00;100573.41;5070316;28;1288;-78
2023/04/23 05:44:09;;;;;;;;;;;;;;;8.15;100.00;100570.63;5064125;28;1263;-78
2023/04/23 05:46:34;;;;;;;;;;;;;;;8.19;100.00;100570.25;5059771;28;1073;-77
2023/04/23 05:48:59;;;;;;;;;;;;;;;8.25;100.00;100566.38;5066497;28;1140;-78
2023/04/23 05:51:25;;;;;;;;;;;;;;;8.28;100.00;100566.16;5062160;28;1362;-77
2023/04/23 05:53:50;;;;;;;;;;;;;;;8.34;100.00;100559.69;5061004;28;1254;-78
2023/04/23 05:56:15;;;;;;;;;;;;;;;8.39;100.00;100563.59;5068055;28;1198;-78
2023/04/23 05:58:40;;;;;;;;;;;;;;;8.46;100.00;100563.94;5064394;28;1925;-78
2023/04/23 06:01:06;;;;;;;;;;;;;;;8.52;100.00;100568.66;5073706;28;1423;-78
2023/04/23 06:03:31;;;;;;;;;;;;;;;8.60;100.00;100575.78;5066577;28;1239;-78
2023/04/23 06:05:56;;;;;;;;;;;;;;;8.67;100.00;100561.47;5063780;28;1412;-78
2023/04/23 06:08:21;;;;;;;;;;;;;;;8.72;100.00;100554.19;5067596;28;1304;-78
2023/04/23 06:10:47;;;;;;;;;;;;;;;8.78;100.00;100559.69;5063992;28;1114;-78
2023/04/23 06:13:12;;;;;;;;;;;;;;;8.85;100.00;100565.22;5074361;28;1335;-77
2023/04/23 06:15:37;;;;;;;;;;;;;;;8.89;100.00;100571.78;5064026;28;1201;-77
2023/04/23 06:18:02;;;;;;;;;;;;;;;8.94;100.00;100559.28;5067557;28;1646;-77
2023/04/23 06:20:28;;;;;;;;;;;;;;;9.01;100.00;100555.31;5065901;28;1971;-78
2023/04/23 06:22:53;;;;;;;;;;;;;;;9.08;100.00;100554.81;5064505;28;1492;-78
2023/04/23 06:25:18;;;;;;;;;;;;;;;9.14;100.00;100554.31;5061081;28;1137;-77
2023/04/23 06:27:43;;;;;;;;;;;;;;;9.21;100.00;100555.47;5058626;28;1314;-77
2023/04/23 06:30:09;;;;;;;;;;;;;;;9.28;100.00;100541.09;5064807;28;1337;-77
2023/04/23 06:32:34;;;;;;;;;;;;;;;9.34;100.00;100544.94;5067275;28;1354;-77
2023/04/23 06:34:59;;;;;;;;;;;;;;;9.41;100.00;100549.53;5064508;28;1464;-78
2023/04/23 06:37:26;;;;;;;;;;;;;;;9.47;100.00;100541.25;5059749;28;1151;-78
2023/04/23 06:39:52;;;;;;;;;;;;;;;9.53;100.00;100540.75;5063662;28;1898;-77
2023/04/23 06:42:17;;;;;;;;;;;;;;;9.62;100.00;100538.34;5063336;28;990;-77
2023/04/23 06:44:42;;;;;;;;;;;;;;;9.71;100.00;100538.41;5059216;28;1465;-77
2023/04/23 06:47:07;;;;;;;;;;;;;;;9.77;100.00;100532.72;5062515;28;1083;-77
2023/04/23 06:49:33;;;;;;;;;;;;;;;9.84;100.00;100533.84;5064808;28;1379;-78
2023/04/23 06:51:58;;;;;;;;;;;;;;;9.91;100.00;100530.75;5062954;28;1088;-78
2023/04/23 06:54:23;;;;;;;;;;;;;;;9.98;100.00;100527.53;5061667;28;1131;-79
2023/04/23 06:56:49;;;;;;;;;;;;;;;10.07;100.00;100518.97;5058194;28;1216;-77
2023/04/23 06:59:15;;;;;;;;;;;;;;;10.16;100.00;100522.56;5065074;28;1902;-78
2023/04/23 07:01:40;;;;;;;;;;;;;;;10.23;100.00;100513.34;5066216;28;1168;-78
2023/04/23 07:04:05;;;;;;;;;;;;;;;10.31;100.00;100515.28;5066493;28;1140;-78
2023/04/23 07:06:32;;;;;;;;;;;;;;;10.38;100.00;100516.44;5068791;28;1584;-78
2023/04/23 07:08:58;;;;;;;;;;;;;;;10.47;100.00;100515.63;5059781;28;1180;-78
2023/04/23 07:11:23;;;;;;;;;;;;;;;10.56;100.00;100520.03;5068614;28;1232;-78
2023/04/23 07:13:48;;;;;;;;;;;;;;;10.64;100.00;100520.16;5061014;28;1127;-78
2023/04/23 07:16:14;;;;;;;;;;;;;;;10.71;100.00;100514.44;5066017;28;1265;-78
2023/04/23 07:18:39;;;;;;;;;;;;;;;10.81;100.00;100520.47;5062796;28;1898;-78
2023/04/23 07:21:04;;;;;;;;;;;;;;;10.88;100.00;100508.59;5060384;28;1267;-78
2023/04/23 07:23:29;;;;;;;;;;;;;;;10.96;100.00;100505.34;5061454;28;1127;-77
2023/04/23 07:25:54;;;;;;;;;;;;;;;11.05;100.00;100513.13;5065402;28;1148;-78
2023/04/23 07:28:20;;;;;;;;;;;;;;;11.15;100.00;100508.75;5065614;28;1151;-78
2023/04/23 07:30:45;;;;;;;;;;;;;;;11.25;99.07;100513.16;5067104;28;1195;-77
2023/04/23 07:33:10;;;;;;;;;;;;;;;11.31;98.13;100512.59;5065160;28;1473;-77
2023/04/23 07:35:36;;;;;;;;;;;;;;;11.38;98.61;100513.69;5067223;28;1179;-77
2023/04/23 07:38:01;;;;;;;;;;;;;;;11.45;98.27;100501.78;5056512;28;1209;-77
2023/04/23 07:40:26;;;;;;;;;;;;;;;11.56;98.02;100512.00;5061061;28;1906;-78
2023/04/23 07:42:51;;;;;;;;;;;;;;;11.61;97.71;100507.22;5060733;28;1417;-78
2023/04/23 07:45:17;;;;;;;;;;;;;;;11.69;97.53;100503.91;5055997;28;1081;-78
2023/04/23 07:47:42;;;;;;;;;;;;;;;11.74;97.25;100506.91;5060565;28;1171;-78
2023/04/23 07:50:08;;;;;;;;;;;;;;;11.82;97.13;100511.47;5057541;28;1046;-77
2023/04/23 07:52:33;;;;;;;;;;;;;;;11.88;97.14;100503.09;5060359;28;1258;-77
2023/04/23 07:54:58;;;;;;;;;;;;;;;12.00;96.74;100504.56;5064613;28;1437;-78
2023/04/23 07:57:23;;;;;;;;;;;;;;;12.07;95.57;100507.41;5054647;28;1115;-77
2023/04/23 07:59:49;;;;;;;;;;;;;;;12.14;96.06;100504.06;5073095;28;1889;-78
2023/04/23 08:02:14;;;;;;;;;;;;;;;12.21;95.17;100496.53;5069928;28;1282;-78
2023/04/23 08:04:39;;;;;;;;;;;;;;;12.30;95.36;100492.25;5057774;28;1465;-77
2023/04/23 08:07:05;;;;;;;;;;;;;;;12.38;95.21;100494.94;5066157;28;1443;-77
2023/04/23 08:09:30;;;;;;;;;;;;;;;12.49;94.96;100487.75;5058516;28;1404;-77
2023/04/23 08:11:56;;;;;;;;;;;;;;;12.56;95.15;100487.16;5062513;28;1120;-77
2023/04/23 08:14:21;;;;;;;;;;;;;;;12.63;94.04;100496.88;5066936;28;1440;-77
2023/04/23 08:16:47;;;;;;;;;;;;;;;12.70;94.09;100497.91;5067461;28;1249;-79
2023/04/23 08:19:12;;;;;;;;;;;;;;;12.79;93.49;100497.97;5062496;28;1902;-77
2023/04/23 08:21:37;;;;;;;;;;;;;;;12.85;93.86;100497.41;5057619;28;1194;-83
2023/04/23 08:24:03;;;;;;;;;;;;;;;12.92;93.17;100488.03;5075882;28;1395;-77
2023/04/23 08:26:28;;;;;;;;;;;;;;;13.03;92.25;100490.44;5065593;28;1106;-78
2023/04/23 08:28:53;;;;;;;;;;;;;;;13.02;91.67;100488.78;5059479;28;1175;-79
2023/04/23 08:31:18;;;;;;;;;;;;;;;13.07;90.87;100496.94;5057634;28;1535;-80
2023/04/23 08:33:44;;;;;;;;;;;;;;;13.14;90.75;100497.19;5066394;28;1192;-80
2023/04/23 08:36:09;;;;;;;;;;;;;;;13.17;90.50;100497.69;5065357;28;1196;-77
2023/04/23 08:38:34;;;;;;;;;;;;;;;13.24;89.75;100492.72;5064191;28;1968;-77
2023/04/23 08:41:00;;;;;;;;;;;;;;;13.33;89.89;100496.22;5058732;28;1230;-77
2023/04/23 08:43:30;;;;;;;;;;;;;;;13.42;89.68;100484.88;5062189;28;1422;-76
2023/04/23 08:45:59;;;;;;;;;;;;;;;13.52;88.64;100478.63;5065597;28;1342;-77
2023/04/23 08:48:24;;;;;;;;;;;;;;;13.59;88.51;100481.47;5061254;28;1154;-76
2023/04/23 08:50:49;;;;;;;;;;;;;;;13.72;87.77;100487.06;5065531;28;1101;-76
2023/04/23 08:53:18;;;;;;;;;;;;;;;13.75;88.14;100478.94;5063465;28;1373;-77
2023/04/23 08:55:44;;;;;;;;;;;;;;;13.84;87.86;100479.00;5074286;28;1385;-74
2023/04/23 08:58:09;;;;;;;;;;;;;;;13.92;86.67;100471.19;5061261;28;1152;-77
2023/04/23 09:00:35;;;;;;;;;;;;;;;13.99;87.09;100473.06;5055200;28;1898;-77
2023/04/23 09:03:00;;;;;;;;;;;;;;;14.12;86.72;100477.00;5057812;28;1258;-74
2023/04/23 09:05:26;;;;;;;;;;;;;;;14.21;86.25;100476.88;5053856;28;1668;-80
2023/04/23 09:07:53;;;;;;;;;;;;;;;14.28;86.61;100472.69;5060060;28;1374;-78
2023/04/23 09:10:18;;;;;;;;;;;;;;;14.43;85.19;100469.44;5063383;28;1488;-82
2023/04/23 09:12:43;;;;;;;;;;;;;;;14.46;84.61;100474.38;5061069;28;1209;-81
2023/04/23 09:15:09;;;;;;;;;;;;;;;14.50;83.04;100475.69;5074285;28;1306;-80
2023/04/23 09:17:36;;;;;;;;;;;;;;;14.57;84.07;100468.88;5063244;28;1208;-80
2023/04/23 09:20:02;;;;;;;;;;;;;;;14.69;83.56;100469.38;5059736;28;1894;-80
2023/04/23 09:22:37;;;;;;;;;;;;;;;14.73;83.13;100466.28;5064613;28;1009;-81
2023/04/23 09:25:04;;;;;;;;;;;;;;;14.92;80.49;100474.81;5057802;28;1395;-80
2023/04/23 09:27:29;;;;;;;;;;;;;;;14.88;81.74;100475.13;5060056;28;1099;-77
2023/04/23 09:29:56;;;;;;;;;;;;;;;14.95;80.63;100469.25;5062629;28;1334;-75
2023/04/23 09:32:29;;;;;;;;;;;;;;;15.02;80.27;100465.00;5060493;28;1235;-76
2023/04/23 09:34:55;;;;;;;;;;;;;;;15.04;79.19;100460.44;5058676;28;1362;-78
2023/04/23 09:37:24;;;;;;;;;;;;;;;15.00;79.37;100459.13;5057954;28;1135;-81
2023/04/23 09:39:52;;;;;;;;;;;;;;;15.04;78.49;100457.84;5066115;28;1902;-81
2023/04/23 09:42:17;;;;;;;;;;;;;;;15.13;78.52;100468.09;5064438;28;1144;-81
2023/04/23 09:44:42;;;;;;;;;;;;;;;15.20;77.50;100467.47;5058698;28;1219;-81
2023/04/23 09:47:08;;;;;;;;;;;;;;;15.27;77.02;100466.66;5064547;28;1397;-80
2023/04/23 09:49:54;;;;;;;;;;;;;;;15.27;75.70;100458.81;5061622;28;1151;-80
2023/04/23 09:52:21;;;;;;;;;;;;;;;15.25;75.70;100454.72;5069173;28;1145;-81
2023/04/23 09:54:46;;;;;;;;;;;;;;;15.30;76.03;100458.47;5063354;28;1139;-81
2023/04/23 09:57:12;;;;;;;;;;;;;;;15.35;74.45;100456.19;5071725;28;1770;-80
2023/04/23 09:59:37;;;;;;;;;;;;;;;15.41;71.10;100452.09;5066042;28;1950;-80
2023/04/23 10:02:03;;;;;;;;;;;;;;;15.52;73.16;100450.94;5069594;28;1519;-79
2023/04/23 10:04:29;;;;;;;;;;;;;;;15.53;73.34;100449.94;5057841;28;1444;-80
2023/04/23 10:07:01;;;;;;;;;;;;;;;15.55;72.29;100445.38;5060668;28;1440;-81
2023/04/23 10:09:27;;;;;;;;;;;;;;;15.54;69.97;100441.97;5070564;28;1343;-81
2023/04/23 10:11:53;;;;;;;;;;;;;;;15.54;68.50;100446.34;5063531;28;1192;-80
2023/04/23 10:14:19;;;;;;;;;;;;;;;15.56;68.19;100447.00;5066854;28;1208;-79
2023/04/23 10:16:45;;;;;;;;;;;;;;;15.59;66.70;100446.66;5058934;28;1203;-82
2023/04/23 10:19:12;;;;;;;;;;;;;;;15.45;67.80;100445.56;5063105;28;1943;-80
2023/04/23 10:21:39;;;;;;;;;;;;;;;15.38;68.43;100448.03;5055669;28;1167;-81
2023/04/23 10:24:06;;;;;;;;;;;;;;;15.36;67.56;100441.31;5061558;28;1194;-81
2023/04/23 10:26:31;;;;;;;;;;;;;;;15.38;67.82;100444.59;5064545;28;1134;-82
2023/04/23 10:28:59;;;;;;;;;;;;;;;15.39;67.91;100444.41;5061475;28;1251;-80
2023/04/23 10:31:25;;;;;;;;;;;;;;;15.46;66.66;100443.75;5058827;28;1208;-80
2023/04/23 10:33:50;;;;;;;;;;;;;;;15.43;63.22;100436.25;5065789;28;1081;-82
2023/04/23 10:36:16;;;;;;;;;;;;;;;15.45;66.37;100429.88;5064183;28;1203;-80
2023/04/23 10:38:41;;;;;;;;;;;;;;;15.48;66.52;100433.94;5063732;28;1894;-81
2023/04/23 10:41:08;;;;;;;;;;;;;;;15.55;66.56;100430.50;5068259;28;1160;-80
2023/04/23 10:43:34;;;;;;;;;;;;;;;15.64;65.92;100423.47;5059717;28;1107;-80
2023/04/23 10:46:00;;;;;;;;;;;;;;;15.70;65.14;100417.56;5059104;28;1464;-80
2023/04/23 10:48:26;;;;;;;;;;;;;;;15.81;62.65;100417.22;5064080;28;1429;-78
2023/04/23 10:51:01;;;;;;;;;;;;;;;15.77;63.77;100418.56;5066844;28;1356;-81
2023/04/23 10:53:30;;;;;;;;;;;;;;;15.86;62.90;100407.06;5061068;28;1395;-79
2023/04/23 10:56:06;;;;;;;;;;;;;;;15.85;63.68;100404.63;5067744;28;1444;-79
2023/04/23 10:58:47;;;;;;;;;;;;;;;15.87;63.86;100403.47;5067137;28;1488;-79
2023/04/23 11:01:12;;;;;;;;;;;;;;;15.84;62.91;100403.00;5059520;28;1247;-80
2023/04/23 11:03:38;;;;;;;;;;;;;;;15.87;63.40;100398.22;5071220;28;1830;-79
2023/04/23 11:06:04;;;;;;;;;;;;;;;15.85;63.63;100397.59;5058856;28;1389;-80
2023/04/23 11:08:31;;;;;;;;;;;;;;;15.87;63.97;100382.53;5066348;28;1248;-80
2023/04/23 11:10:57;;;;;;;;;;;;;;;15.93;63.70;100392.31;5064310;28;1219;-80
2023/04/23 11:13:25;;;;;;;;;;;;;;;15.94;64.29;100387.91;5058974;28;1252;-80
2023/04/23 11:16:10;;;;;;;;;;;;;;;16.00;63.74;100391.63;5064429;28;1084;-80
2023/04/23 11:18:54;;;;;;;;;;;;;;;15.98;63.66;100391.00;5064462;28;1967;-80
2023/04/23 11:21:19;;;;;;;;;;;;;;;15.86;64.11;100378.31;5063395;28;1238;-81
2023/04/23 11:23:45;;;;;;;;;;;;;;;15.90;64.09;100387.44;5064375;28;1104;-79
2023/04/23 11:26:10;;;;;;;;;;;;;;;15.88;63.56;100378.94;5063402;28;1170;-82
2023/04/23 11:28:37;;;;;;;;;;;;;;;15.86;64.29;100365.22;5063023;28;1239;-79
2023/04/23 11:31:03;;;;;;;;;;;;;;;15.86;63.35;100367.84;5066864;28;1160;-80
2023/04/23 11:33:28;;;;;;;;;;;;;;;15.85;64.68;100368.81;5058879;28;1659;-80
2023/04/23 11:35:53;;;;;;;;;;;;;;;15.91;63.72;100362.91;5075001;28;1307;-80
2023/04/23 11:38:19;;;;;;;;;;;;;;;15.96;64.20;100358.97;5055339;28;1099;-80
2023/04/23 11:40:47;;;;;;;;;;;;;;;15.94;63.60;100351.28;5057486;28;1901;-79
2023/04/23 11:43:17;;;;;;;;;;;;;;;15.90;64.22;100350.81;5063386;28;1354;-80
2023/04/23 11:45:43;;;;;;;;;;;;;;;15.93;63.79;100341.81;5066553;28;1232;-79
2023/04/23 11:48:08;;;;;;;;;;;;;;;15.93;63.85;100339.19;5059015;28;1228;-79
2023/04/23 11:50:34;;;;;;;;;;;;;;;15.99;64.13;100329.84;5065673;28;1211;-79
2023/04/23 11:53:09;;;;;;;;;;;;;;;16.01;63.57;100325.28;5060190;28;1042;-79
2023/04/23 11:55:34;;;;;;;;;;;;;;;16.00;64.40;100324.47;5066437;28;1222;-80
2023/04/23 11:57:59;;;;;;;;;;;;;;;16.12;64.26;100317.03;5064892;28;1200;-79
2023/04/23 12:00:25;;;;;;;;;;;;;;;16.22;63.44;100307.13;5066217;28;1994;-79
2023/04/23 12:02:58;;;;;;;;;;;;;;;16.20;63.93;100314.34;5065653;28;1234;-79
2023/04/23 12:05:35;;;;;;;;;;;;;;;16.28;62.50;100316.91;5061049;28;1076;-79
2023/04/23 12:08:19;;;;;;;;;;;;;;;16.22;63.82;100307.13;5058490;28;1001;-79
2023/04/23 12:10:46;;;;;;;;;;;;;;;16.23;63.89;100303.56;5063948;28;1734;-80
2023/04/23 12:13:17;;;;;;;;;;;;;;;16.25;63.73;100301.56;5065093;28;1117;-80
2023/04/23 12:15:50;;;;;;;;;;;;;;;16.29;62.99;100297.63;5064305;28;1247;-79
2023/04/23 12:18:15;;;;;;;;;;;;;;;16.22;64.09;100301.91;5056378;28;1500;-79
2023/04/23 12:20:42;;;;;;;;;;;;;;;16.21;63.13;100300.28;5060297;28;1902;-80
2023/04/23 12:23:07;;;;;;;;;;;;;;;16.19;64.05;100286.56;5062330;28;1257;-79
2023/04/23 12:25:33;;;;;;;;;;;;;;;16.19;63.92;100278.72;5065299;28;1130;-79
2023/04/23 12:27:59;;;;;;;;;;;;;;;16.23;63.04;100277.38;5075588;28;1451;-79
2023/04/23 12:30:28;;;;;;;;;;;;;;;16.23;63.44;100287.00;5058251;28;1686;-79
2023/04/23 12:32:58;;;;;;;;;;;;;;;16.29;63.43;100281.91;5066028;28;1076;-79
2023/04/23 12:35:36;;;;;;;;;;;;;;;16.39;63.67;100272.00;5061845;28;1332;-79
2023/04/23 12:38:03;;;;;;;;;;;;;;;16.44;64.16;100269.66;5059247;28;1275;-77
2023/04/23 12:40:28;;;;;;;;;;;;;;;16.51;64.45;100266.34;5061917;28;1890;-78
2023/04/23 12:42:54;;;;;;;;;;;;;;;16.49;62.54;100260.47;5056746;28;1361;-78